Time;durP1;ratioP1;P1;durP2;ratioP2;P2;SDS_P1;SDS_P2;PMS_P1;PMS_P2;Temp;Humidity;BMP_temperature;BMP_pressure;BME280_temperature;BME280_humidity;BME280_pressure;Samples;Min_cycle;Max_cycle;Signal;HPM_P1;HPM_P2
2023/05/23 00:01:48;;;;;;;11.03;10.23;;;;;;;-145.94;65.68;76700.41;5113532;28;20189;-71
2023/05/23 00:04:17;;;;;;;11.27;10.50;;;;;;;-145.94;65.77;76702.47;5113596;28;20181;-71
2023/05/23 00:06:45;;;;;;;9.77;9.30;;;;;;;-145.94;65.70;76700.41;5113737;28;20652;-71
2023/05/23 00:09:15;;;;;;;10.70;9.87;;;;;;;-145.94;65.81;76712.66;5113764;28;20192;-71
2023/05/23 00:11:44;;;;;;;10.50;9.80;;;;;;;-145.94;65.76;76714.69;5113482;28;20238;-71
2023/05/23 00:14:14;;;;;;;10.53;9.73;;;;;;;-145.94;65.65;76706.53;5115563;28;20521;-71
2023/05/23 00:16:42;;;;;;;8.83;8.20;;;;;;;-145.94;65.77;76714.69;5117747;28;20197;-71
2023/05/23 00:19:15;;;;;;;8.87;8.40;;;;;;;-145.94;66.16;76728.97;5117627;28;20201;-71
2023/05/23 00:21:42;;;;;;;9.43;8.93;;;;;;;-145.94;65.48;76726.94;5118308;28;20181;-71
2023/05/23 00:24:09;;;;;;;9.27;8.47;;;;;;;-145.94;65.74;76735.09;5117597;28;20185;-71
2023/05/23 00:26:36;;;;;;;7.73;7.47;;;;;;;-145.94;65.73;76737.13;5119712;28;20235;-71
2023/05/23 00:29:02;;;;;;;8.30;7.67;;;;;;;-145.94;65.85;76741.19;5118816;28;20228;-70
2023/05/23 00:31:29;;;;;;;7.47;7.27;;;;;;;-145.94;65.15;76743.25;5100055;28;20254;-71
2023/05/23 00:33:55;;;;;;;8.30;7.53;;;;;;;-145.94;64.44;76741.19;5098989;28;20199;-70
2023/05/23 00:36:22;;;;;;;7.57;6.83;;;;;;;-145.94;64.78;76745.28;5098829;28;20209;-71
2023/05/23 00:38:48;;;;;;;7.00;6.67;;;;;;;-145.94;65.04;76747.31;5117121;28;20590;-71
2023/05/23 00:41:17;;;;;;;6.97;6.77;;;;;;;-145.94;65.01;76753.44;5117412;28;20189;-70
2023/05/23 00:43:43;;;;;;;7.90;7.40;;;;;;;-145.94;65.10;76747.31;5117543;28;20662;-71
2023/05/23 00:46:10;;;;;;;7.30;6.73;;;;;;;-145.94;64.94;76749.34;5117212;28;20181;-71
2023/05/23 00:48:37;;;;;;;7.13;6.53;;;;;;;-145.94;65.19;76751.41;5098526;28;20251;-71
2023/05/23 00:51:04;;;;;;;7.00;6.80;;;;;;;-145.94;65.28;76751.41;5098566;28;20197;-71
2023/05/23 00:53:32;;;;;;;6.53;6.33;;;;;;;-145.94;64.97;76757.50;5098594;28;20185;-71
2023/05/23 00:55:58;;;;;;;7.03;6.80;;;;;;;-145.94;65.25;76759.56;5098447;28;20217;-71
2023/05/23 00:58:25;;;;;;;8.07;7.83;;;;;;;-145.94;65.11;76759.56;5116652;28;20266;-71
2023/05/23 01:00:53;;;;;;;7.87;7.63;;;;;;;-145.94;65.06;76757.50;5116686;28;20177;-71
2023/05/23 01:03:19;;;;;;;8.30;7.80;;;;;;;-145.94;64.65;76757.50;5116558;28;20656;-70
2023/05/23 01:05:46;;;;;;;7.20;7.00;;;;;;;-145.94;64.38;76759.56;5116574;28;20165;-71
2023/05/23 01:08:14;;;;;;;7.63;7.27;;;;;;;-145.94;64.69;76753.44;5116433;28;20679;-71
2023/05/23 01:10:40;;;;;;;6.93;6.73;;;;;;;-145.94;64.52;76749.34;5098545;28;20192;-71
2023/05/23 01:13:23;;;;;;;7.50;7.13;;;;;;;-145.94;64.81;76743.25;5098481;28;20181;-71
2023/05/23 01:16:08;;;;;;;7.70;7.13;;;;;;;-145.94;64.60;76753.44;5098048;28;20205;-71
2023/05/23 01:18:57;;;;;;;7.17;6.80;;;;;;;-145.94;64.77;76749.34;5116629;28;20296;-71
2023/05/23 01:21:25;;;;;;;7.97;7.60;;;;;;;-145.94;64.65;76749.34;5116287;28;20234;-71
2023/05/23 01:24:10;;;;;;;7.30;7.03;;;;;;;-145.94;64.30;76751.41;5116546;28;20174;-71
2023/05/23 01:27:01;;;;;;;8.03;6.67;;;;;;;-145.94;64.38;76747.31;5115958;28;20604;-71
2023/05/23 01:29:32;;;;;;;7.30;7.10;;;;;;;-145.94;65.09;76753.44;5116070;28;20189;-71
2023/05/23 01:32:01;;;;;;;7.73;7.33;;;;;;;-145.94;64.92;76747.31;5116671;28;20616;-71
2023/05/23 01:34:30;;;;;;;7.80;7.50;;;;;;;-145.94;65.15;76759.56;5097923;28;20189;-71
2023/05/23 01:36:57;;;;;;;8.13;7.70;;;;;;;-145.94;65.21;76755.47;5098093;28;20783;-71
2023/05/23 01:39:24;;;;;;;8.50;8.17;;;;;;;-145.94;65.42;76749.34;5097615;28;20211;-71
2023/05/23 01:41:52;;;;;;;8.47;7.93;;;;;;;-145.94;65.26;76755.47;5116194;28;20517;-70
2023/05/23 01:44:19;;;;;;;7.70;7.20;;;;;;;-145.94;65.22;76751.41;5097588;28;20264;-71
2023/05/23 01:46:47;;;;;;;9.20;8.63;;;;;;;-145.94;65.41;76753.44;5097623;28;20189;-70
2023/05/23 01:49:15;;;;;;;15.13;9.17;;;;;;;-145.94;65.40;76745.28;5097542;28;20215;-71
2023/05/23 01:51:42;;;;;;;9.07;8.63;;;;;;;-145.94;65.57;76757.50;5097333;28;20655;-71
2023/05/23 01:54:09;;;;;;;9.13;8.57;;;;;;;-145.94;65.30;76755.47;5116174;28;20655;-71
2023/05/23 01:56:36;;;;;;;9.23;8.73;;;;;;;-145.94;65.61;76753.44;5097294;28;20250;-71
2023/05/23 01:59:03;;;;;;;9.20;8.70;;;;;;;-145.94;65.25;76755.47;5097172;28;20237;-71
2023/05/23 02:01:30;;;;;;;10.60;9.87;;;;;;;-145.94;65.76;76755.47;5097465;28;20203;-71
2023/05/23 02:03:57;;;;;;;9.60;8.80;;;;;;;-145.94;65.83;76755.47;5097221;28;20193;-71
2023/05/23 02:06:23;;;;;;;9.70;9.07;;;;;;;-145.94;65.63;76755.47;5097133;28;20185;-71
2023/05/23 02:08:50;;;;;;;9.37;8.77;;;;;;;-145.94;65.79;76767.72;5115298;28;20262;-71
2023/05/23 02:11:16;;;;;;;10.13;9.60;;;;;;;-145.94;65.61;76767.72;5115816;28;20697;-71
2023/05/23 02:13:42;;;;;;;11.50;10.00;;;;;;;-145.94;65.65;76765.66;5115564;28;20178;-71
2023/05/23 02:16:10;;;;;;;10.70;9.77;;;;;;;-145.94;65.98;76761.59;5115415;28;20213;-71
2023/05/23 02:18:37;;;;;;;11.17;10.27;;;;;;;-145.94;65.79;76757.50;5096876;28;20222;-71
2023/05/23 02:21:04;;;;;;;11.67;10.47;;;;;;;-145.94;65.68;76755.47;5096841;28;20197;-71
2023/05/23 02:23:31;;;;;;;11.27;10.33;;;;;;;-145.94;65.74;76759.56;5096777;28;20291;-71
2023/05/23 02:25:57;;;;;;;11.33;10.60;;;;;;;-145.94;65.65;76763.63;5096807;28;20193;-72
2023/05/23 02:28:24;;;;;;;13.97;11.33;;;;;;;-145.94;65.96;76769.75;5096614;28;20303;-71
2023/05/23 02:30:50;;;;;;;14.87;9.97;;;;;;;-145.94;65.44;76759.56;5096680;28;20192;-72
2023/05/23 02:33:16;;;;;;;10.93;9.80;;;;;;;-145.94;66.19;76761.59;5115480;28;20200;-71
2023/05/23 02:35:44;;;;;;;11.27;10.23;;;;;;;-145.94;66.33;76767.72;5096959;28;20213;-70
2023/05/23 02:38:10;;;;;;;11.67;10.10;;;;;;;-145.94;66.03;76761.59;5096488;28;20313;-71
2023/05/23 02:40:39;;;;;;;14.00;10.70;;;;;;;-145.94;66.02;76767.72;5114943;28;20209;-71
2023/05/23 02:43:05;;;;;;;11.00;10.03;;;;;;;-145.94;66.04;76775.88;5114703;28;20697;-71
2023/05/23 02:45:32;;;;;;;13.70;10.70;;;;;;;-145.94;65.96;76779.94;5114589;28;20199;-71
2023/05/23 02:47:58;;;;;;;10.23;9.30;;;;;;;-145.94;65.76;76779.94;5096253;28;20213;-70
2023/05/23 02:50:25;;;;;;;13.80;10.67;;;;;;;-145.94;65.58;76779.94;5096271;28;20211;-71
2023/05/23 02:52:51;;;;;;;11.10;9.97;;;;;;;-145.94;66.19;76786.06;5096254;28;20599;-71
2023/05/23 02:55:18;;;;;;;12.13;10.00;;;;;;;-145.94;65.98;76777.91;5096068;28;20201;-71
2023/05/23 02:57:47;;;;;;;9.70;8.90;;;;;;;-145.94;65.68;76790.16;5096427;28;20209;-70
2023/05/23 03:00:14;;;;;;;9.97;8.87;;;;;;;-145.94;65.06;76790.16;5096131;28;20193;-71
2023/05/23 03:02:45;;;;;;;12.07;8.50;;;;;;;-145.94;65.41;76792.19;5114920;28;20166;-70
2023/05/23 03:05:11;;;;;;;11.37;8.27;;;;;;;-145.94;65.39;76790.16;5096069;28;20238;-71
2023/05/23 03:07:38;;;;;;;9.30;8.33;;;;;;;-145.94;65.13;76790.16;5114137;28;20205;-72
2023/05/23 03:10:06;;;;;;;8.33;7.80;;;;;;;-145.94;64.97;76804.41;5095982;28;20193;-71
2023/05/23 03:12:32;;;;;;;8.17;7.57;;;;;;;-145.94;65.56;76810.53;5114449;28;20647;-71
2023/05/23 03:14:59;;;;;;;8.30;7.80;;;;;;;-145.94;64.98;76808.50;5114127;28;20197;-71
2023/05/23 03:17:26;;;;;;;8.73;7.70;;;;;;;-145.94;65.13;76814.63;5095693;28;20220;-71
2023/05/23 03:19:52;;;;;;;9.43;8.53;;;;;;;-145.94;65.63;76824.81;5095833;28;20234;-70
2023/05/23 03:22:19;;;;;;;8.67;7.77;;;;;;;-145.94;65.64;76828.88;5078940;28;20541;-70
2023/05/23 03:24:46;;;;;;;7.73;7.30;;;;;;;-145.94;65.79;76822.78;5095723;28;20536;-71
2023/05/23 03:27:12;;;;;;;9.20;8.47;;;;;;;-145.94;65.56;76828.88;5113773;28;20564;-71
2023/05/23 03:29:39;;;;;;;10.30;8.57;;;;;;;-145.94;65.52;76830.94;5095721;28;20200;-71
2023/05/23 03:32:06;;;;;;;9.27;8.13;;;;;;;-145.94;65.51;76837.03;5114165;28;20238;-71
2023/05/23 03:34:35;;;;;;;9.43;8.73;;;;;;;-145.94;65.70;76837.03;5114406;28;20182;-71
2023/05/23 03:37:03;;;;;;;11.23;8.27;;;;;;;-145.94;65.70;76845.19;5113914;28;20208;-71
2023/05/23 03:39:30;;;;;;;8.27;7.67;;;;;;;-145.94;65.71;76859.47;5095511;28;20655;-70
2023/05/23 03:41:56;;;;;;;8.77;7.90;;;;;;;-145.94;65.92;76849.28;5114013;28;20230;-70
2023/05/23 03:44:23;;;;;;;8.60;8.00;;;;;;;-145.94;66.14;76863.56;5095756;28;20201;-71
2023/05/23 03:46:49;;;;;;;12.97;7.80;;;;;;;-145.94;66.16;76863.56;5095596;28;20288;-71
2023/05/23 03:49:16;;;;;;;9.40;7.77;;;;;;;-145.94;66.23;76867.63;5095257;28;20203;-71
2023/05/23 03:51:43;;;;;;;12.03;8.70;;;;;;;-145.94;66.53;76873.75;5113884;28;20547;-71
2023/05/23 03:54:13;;;;;;;10.33;9.27;;;;;;;-145.94;66.72;76879.88;5095762;28;20239;-70
2023/05/23 03:56:39;;;;;;;9.43;8.70;;;;;;;-145.94;66.51;76892.09;5113847;28;20212;-71
2023/05/23 03:59:07;;;;;;;10.03;9.13;;;;;;;-145.94;66.79;76888.03;5095824;28;20208;-71
2023/05/23 04:01:34;;;;;;;10.73;9.00;;;;;;;-145.94;67.17;76888.03;5095705;28;20567;-71
2023/05/23 04:04:01;;;;;;;9.73;8.80;;;;;;;-145.94;67.33;76892.09;5095297;28;20197;-71
2023/05/23 04:06:32;;;;;;;9.77;8.87;;;;;;;-145.94;67.25;76894.13;5096106;28;20264;-71
2023/05/23 04:08:59;;;;;;;9.83;9.13;;;;;;;-145.94;67.05;76894.13;5095193;28;20217;-70
2023/05/23 04:11:25;;;;;;;10.53;9.70;;;;;;;-145.94;67.03;76904.34;5095151;28;20217;-70
2023/05/23 04:13:52;;;;;;;13.67;10.43;;;;;;;-145.94;67.14;76906.38;5113460;28;20206;-70
2023/05/23 04:16:21;;;;;;;12.57;8.77;;;;;;;-145.94;67.16;76902.28;5095357;28;20249;-70
2023/05/23 04:18:48;;;;;;;10.90;9.83;;;;;;;-145.94;67.37;76902.28;5095097;28;20614;-70
2023/05/23 04:21:15;;;;;;;18.00;10.13;;;;;;;-145.94;67.45;76902.28;5095178;28;20185;-71
2023/05/23 04:24:03;;;;;;;14.23;10.87;;;;;;;-145.94;67.21;76900.25;5095413;28;20193;-71
2023/05/23 04:26:29;;;;;;;14.90;10.17;;;;;;;-145.94;67.25;76904.34;5113605;28;20185;-70
2023/05/23 04:28:58;;;;;;;12.93;10.73;;;;;;;-145.94;67.34;76906.38;5095133;28;20227;-70
2023/05/23 04:31:24;;;;;;;15.20;9.87;;;;;;;-145.94;67.35;76904.34;5095060;28;20196;-70
2023/05/23 04:33:51;;;;;;;14.27;9.77;;;;;;;-145.94;67.23;76906.38;5113544;28;20273;-71
2023/05/23 04:36:18;;;;;;;11.20;9.77;;;;;;;-145.94;67.40;76902.28;5094964;28;20564;-71
2023/05/23 04:38:50;;;;;;;14.37;10.90;;;;;;;-145.94;67.42;76908.41;5095072;28;20213;-71
2023/05/23 04:41:22;;;;;;;18.73;10.33;;;;;;;-145.94;67.16;76904.34;5094957;28;20250;-71
2023/05/23 04:44:08;;;;;;;12.37;11.07;;;;;;;-145.94;67.16;76902.28;5112504;28;20191;-71
2023/05/23 04:46:40;;;;;;;13.10;10.37;;;;;;;-145.94;67.42;76904.34;5094896;28;20185;-71
2023/05/23 04:49:28;;;;;;;15.70;11.27;;;;;;;-145.94;67.45;76902.28;5095506;28;20266;-70
2023/05/23 04:51:55;;;;;;;12.13;11.00;;;;;;;-145.94;67.04;76910.47;5095032;28;20289;-71
2023/05/23 04:54:25;;;;;;;14.73;10.40;;;;;;;-145.94;66.99;76906.38;5095106;28;20732;-71
2023/05/23 04:56:53;;;;;;;16.33;11.70;;;;;;;-145.94;67.60;76914.53;5095614;28;20266;-70
2023/05/23 04:59:20;;;;;;;13.47;10.57;;;;;;;-145.94;67.34;76912.50;5095014;28;20671;-70
2023/05/23 05:01:46;;;;;;;20.00;11.23;;;;;;;-145.94;67.14;76900.25;5097558;28;20193;-71
2023/05/23 05:04:14;;;;;;;18.77;11.93;;;;;;;-145.94;67.16;76916.56;5098413;28;20200;-71
2023/05/23 05:06:40;;;;;;;16.60;11.60;;;;;;;-145.94;67.34;76924.72;5098258;28;20218;-70
2023/05/23 05:09:08;;;;;;;18.33;11.97;;;;;;;-145.94;67.21;76928.81;5098493;28;20216;-70
2023/05/23 05:11:34;;;;;;;22.03;12.17;;;;;;;-145.94;67.34;76943.09;5098189;28;20193;-71
2023/05/23 05:14:01;;;;;;;17.83;11.03;;;;;;;-145.94;67.12;76939.00;5098242;28;20211;-71
2023/05/23 05:16:28;;;;;;;13.20;10.53;;;;;;;-145.94;67.04;76943.09;5098887;28;20240;-71
2023/05/23 05:18:54;;;;;;;17.10;10.73;;;;;;;-145.94;67.06;76953.28;5116748;28;20307;-70
2023/05/23 05:21:21;;;;;;;12.60;9.80;;;;;;;-145.94;67.06;76949.19;5097977;28;20197;-71
2023/05/23 05:23:48;;;;;;;11.60;10.43;;;;;;;-145.94;67.14;76951.25;5097874;28;20693;-71
2023/05/23 05:26:16;;;;;;;15.07;11.17;;;;;;;-145.94;67.23;76945.13;5097915;28;20189;-71
2023/05/23 05:28:42;;;;;;;14.27;10.90;;;;;;;-145.94;67.54;76939.00;5097681;28;20628;-71
2023/05/23 05:31:14;;;;;;;12.33;11.13;;;;;;;-145.94;67.27;76951.25;5097771;28;20197;-71
2023/05/23 05:33:44;;;;;;;11.60;10.57;;;;;;;-145.94;67.20;76957.34;5097743;28;20181;-71
2023/05/23 05:36:13;;;;;;;17.70;12.80;;;;;;;-145.94;67.38;76963.47;5098179;28;20292;-71
2023/05/23 05:38:40;;;;;;;14.00;11.87;;;;;;;-145.94;67.37;76961.44;5097744;28;20709;-71
2023/05/23 05:41:06;;;;;;;15.63;11.93;;;;;;;-145.94;67.46;76969.59;5098408;28;20200;-70
2023/05/23 05:43:38;;;;;;;16.73;13.23;;;;;;;-145.94;67.28;76969.59;5097688;28;20177;-70
2023/05/23 05:46:04;;;;;;;26.97;12.30;;;;;;;-145.94;67.18;76975.72;5097495;28;20196;-71
2023/05/23 05:48:31;;;;;;;15.27;12.87;;;;;;;-145.94;67.18;76977.75;5097456;28;20232;-71
2023/05/23 05:51:02;;;;;;;15.77;11.60;;;;;;;-145.94;67.02;76979.78;5098048;28;20268;-70
2023/05/23 05:53:31;;;;;;;23.43;12.70;;;;;;;-145.94;66.95;76977.75;5097710;28;20730;-72
2023/05/23 05:55:59;;;;;;;12.87;11.60;;;;;;;-145.94;66.78;76981.81;5097237;28;20599;-70
2023/05/23 05:58:25;;;;;;;11.90;10.73;;;;;;;-145.94;66.92;76979.78;5097597;28;20244;-71
2023/05/23 06:00:57;;;;;;;15.00;11.73;;;;;;;-145.94;67.42;76985.91;5097647;28;20181;-70
2023/05/23 06:03:24;;;;;;;17.83;11.57;;;;;;;-145.94;66.99;76985.91;5097109;28;20253;-71
2023/05/23 06:05:53;;;;;;;14.23;12.17;;;;;;;-145.94;66.87;76989.97;5097206;28;20193;-70
2023/05/23 06:08:21;;;;;;;12.53;11.20;;;;;;;-145.94;67.38;76983.88;5097001;28;20225;-71
2023/05/23 06:10:47;;;;;;;12.00;10.63;;;;;;;-145.94;67.02;76985.91;5097045;28;20189;-71
2023/05/23 06:13:14;;;;;;;14.43;11.70;;;;;;;-145.94;67.05;76989.97;5115392;28;20525;-71
2023/05/23 06:15:44;;;;;;;12.03;10.80;;;;;;;-145.94;67.01;76989.97;5097089;28;20600;-71
2023/05/23 06:18:11;;;;;;;18.47;12.17;;;;;;;-145.94;66.92;76979.78;5097250;28;20234;-71
2023/05/23 06:20:38;;;;;;;13.00;11.53;;;;;;;-145.94;67.03;76981.81;5098006;28;20222;-71
2023/05/23 06:23:10;;;;;;;12.20;10.97;;;;;;;-145.94;66.84;76989.97;5097137;28;20197;-71
2023/05/23 06:25:37;;;;;;;10.60;9.80;;;;;;;-145.94;66.07;76992.03;5096866;28;20196;-70
2023/05/23 06:28:05;;;;;;;10.87;10.00;;;;;;;-145.94;65.65;76998.13;5097228;28;20691;-70
2023/05/23 06:30:32;;;;;;;8.23;8.00;;;;;;;-145.94;64.91;77000.19;5096897;28;20189;-70
2023/05/23 06:32:59;;;;;;;9.13;8.43;;;;;;;-145.94;65.19;76992.03;5115319;28;20213;-70
2023/05/23 06:35:25;;;;;;;10.03;8.03;;;;;;;-145.94;64.96;76983.88;5096620;28;20258;-72
2023/05/23 06:37:52;;;;;;;9.47;8.63;;;;;;;-145.94;64.49;76994.06;5096466;28;20270;-70
2023/05/23 06:40:18;;;;;;;9.70;8.70;;;;;;;-145.94;64.26;77000.19;5115307;28;20193;-70
2023/05/23 06:42:44;;;;;;;10.63;8.27;;;;;;;-145.94;64.36;76992.03;5096514;28;20197;-70
2023/05/23 06:45:23;;;;;;;8.57;8.17;;;;;;;-145.94;65.03;76992.03;5096937;28;20195;-71
2023/05/23 06:47:50;;;;;;;9.40;8.53;;;;;;;-145.94;64.65;76998.13;5114808;28;20615;-70
2023/05/23 06:50:20;;;;;;;10.03;9.47;;;;;;;-145.94;64.23;76996.09;5114529;28;20597;-71
2023/05/23 06:52:49;;;;;;;10.50;9.47;;;;;;;-145.94;64.06;77004.25;5096618;28;20193;-71
2023/05/23 06:55:18;;;;;;;10.30;8.93;;;;;;;-145.94;64.21;77008.34;5097040;28;20196;-71
2023/05/23 06:57:46;;;;;;;13.77;8.83;;;;;;;-145.94;64.12;77012.41;5096581;28;20243;-71
2023/05/23 07:00:13;;;;;;;13.70;9.37;;;;;;;-145.94;64.43;77010.38;5096205;28;20189;-71
2023/05/23 07:02:49;;;;;;;9.57;9.00;;;;;;;-145.94;63.91;77012.41;5096981;28;20536;-70
2023/05/23 07:05:18;;;;;;;9.70;8.70;;;;;;;-145.94;64.36;77014.47;5096089;28;20204;-70
2023/05/23 07:07:49;;;;;;;10.00;9.30;;;;;;;-145.94;64.35;77024.66;5096213;28;20220;-70
2023/05/23 07:10:16;;;;;;;12.30;8.73;;;;;;;-145.94;63.98;77016.50;5096308;28;20666;-71
2023/05/23 07:12:45;;;;;;;18.03;8.70;;;;;;;-145.94;63.95;77010.38;5095905;28;20604;-70
2023/05/23 07:15:13;;;;;;;15.00;8.23;;;;;;;-145.94;64.23;77020.56;5096080;28;20193;-70
2023/05/23 07:17:49;;;;;;;11.53;9.47;;;;;;;-145.94;64.25;77014.47;5095943;28;20265;-70
2023/05/23 07:20:16;;;;;;;11.60;9.63;;;;;;;-145.94;63.94;77022.63;5096908;28;20593;-70
2023/05/23 07:22:44;;;;;;;10.87;9.80;;;;;;;-145.94;64.18;77020.56;5095360;28;20622;-71
2023/05/23 07:25:10;;;;;;;14.87;10.43;;;;;;;-145.94;64.29;77038.94;5095425;28;20236;-70
2023/05/23 07:27:38;;;;;;;17.10;11.27;;;;;;;-145.94;64.50;77049.13;5095523;28;20308;-70
2023/05/23 07:30:06;;;;;;;16.03;11.90;;;;;;;-145.94;64.83;77067.47;5095912;28;20219;-70
2023/05/23 07:32:34;;;;;;;14.03;10.93;;;;;;;-145.94;65.30;77071.56;5096204;28;20539;-71
2023/05/23 07:35:01;;;;;;;11.13;10.00;;;;;;;-145.94;65.52;77077.69;5095567;28;20213;-69
2023/05/23 07:37:28;;;;;;;11.50;9.83;;;;;;;-145.94;65.37;77087.88;5096049;28;20653;-70
2023/05/23 07:39:55;;;;;;;19.27;10.37;;;;;;;-145.94;65.02;77098.06;5095589;28;20185;-70
2023/05/23 07:42:21;;;;;;;14.87;10.07;;;;;;;-145.94;65.06;77094.00;5114058;28;20587;-70
2023/05/23 07:44:48;;;;;;;21.00;10.33;;;;;;;-145.94;64.79;77094.00;5095542;28;20194;-70
2023/05/23 07:47:14;;;;;;;19.57;10.27;;;;;;;-145.94;65.21;77098.06;5095664;28;20205;-70
2023/05/23 07:49:41;;;;;;;15.83;9.47;;;;;;;-145.94;64.51;77091.94;5095444;28;20193;-70
2023/05/23 07:52:08;;;;;;;15.53;9.43;;;;;;;-145.94;64.97;77091.94;5113679;28;20223;-71
2023/05/23 07:54:34;;;;;;;12.70;9.67;;;;;;;-145.94;65.16;77124.56;5095933;28;20193;-70
2023/05/23 07:57:02;;;;;;;17.07;10.47;;;;;;;-145.94;65.63;77140.91;5095278;28;20204;-71
2023/05/23 07:59:29;;;;;;;12.70;10.90;;;;;;;-145.94;65.51;77144.97;5095424;28;20246;-70
2023/05/23 08:01:56;;;;;;;16.10;11.33;;;;;;;-145.94;65.68;77151.09;5095459;28;20196;-71
2023/05/23 08:04:24;;;;;;;15.17;11.33;;;;;;;-145.94;65.98;77165.38;5095625;28;20229;-70
2023/05/23 08:06:52;;;;;;;25.53;12.00;;;;;;;-145.94;66.08;77171.47;5095744;28;20196;-69
2023/05/23 08:09:45;;;;;;;21.27;12.33;;;;;;;-145.94;66.58;77177.59;5095707;28;20750;-70
2023/05/23 08:12:14;;;;;;;23.73;12.30;;;;;;;-145.94;66.49;77177.59;5113444;28;20523;-71
2023/05/23 08:14:42;;;;;;;14.17;11.40;;;;;;;-145.94;67.01;77177.59;5095298;28;20197;-71
2023/05/23 08:17:28;;;;;;;21.33;11.67;;;;;;;-145.94;67.21;77200.03;5098105;28;20605;-70
2023/05/23 08:19:55;;;;;;;13.57;10.20;;;;;;;-145.94;67.25;77212.28;5096122;28;20238;-71
2023/05/23 08:22:22;;;;;;;16.20;10.70;;;;;;;-145.94;66.96;77226.53;5095157;28;20192;-70
2023/05/23 08:24:49;;;;;;;14.57;10.97;;;;;;;-145.94;66.88;77232.66;5095150;28;20196;-70
2023/05/23 08:27:15;;;;;;;13.10;10.17;;;;;;;-145.94;67.19;77238.78;5094418;28;20570;-70
2023/05/23 08:29:43;;;;;;;12.20;10.63;;;;;;;-145.94;67.00;77242.88;5095689;28;20194;-71
2023/05/23 08:32:10;;;;;;;11.47;10.00;;;;;;;-145.94;67.25;77232.66;5095059;28;20573;-70
2023/05/23 08:34:37;;;;;;;12.00;10.27;;;;;;;-145.94;66.81;77224.50;5096358;28;20193;-70
2023/05/23 08:37:03;;;;;;;10.97;10.07;;;;;;;-145.94;66.20;77228.59;5117498;28;20591;-70
2023/05/23 08:39:30;;;;;;;11.73;10.07;;;;;;;-145.94;65.50;77236.75;5098907;28;20235;-71
2023/05/23 08:42:14;;;;;;;9.17;7.87;;;;;;;-145.94;65.85;77232.66;5099699;28;20197;-70
2023/05/23 08:44:42;;;;;;;23.87;9.73;;;;;;;-145.94;65.69;77228.59;5098847;28;20193;-71
2023/05/23 08:47:10;;;;;;;15.57;9.40;;;;;;;-145.94;65.65;77234.69;5098681;28;20205;-71
2023/05/23 08:49:45;;;;;;;10.00;9.40;;;;;;;-145.94;66.46;77242.88;5098709;28;20185;-71
2023/05/23 08:52:16;;;;;;;13.37;11.33;;;;;;;-145.94;66.42;77253.06;5098708;28;20219;-71
2023/05/23 08:54:45;;;;;;;22.90;12.83;;;;;;;-145.94;66.91;77263.25;5099458;28;20185;-70
2023/05/23 08:57:13;;;;;;;12.50;10.23;;;;;;;-145.94;66.59;77255.09;5116922;28;20245;-70
2023/05/23 08:59:45;;;;;;;18.13;10.03;;;;;;;-145.94;66.62;77257.13;5098881;28;20219;-71
2023/05/23 09:02:12;;;;;;;13.90;8.93;;;;;;;-145.94;65.65;77267.34;5098499;28;20189;-70
2023/05/23 09:04:40;;;;;;;15.63;9.93;;;;;;;-145.94;65.56;77275.50;5099152;28;20189;-72
2023/05/23 09:07:15;;;;;;;13.33;9.67;;;;;;;-145.94;65.87;77277.53;5098287;28;20206;-70
2023/05/23 09:09:43;;;;;;;13.03;9.17;;;;;;;-145.94;66.10;77265.28;5099118;28;20610;-69
2023/05/23 09:12:12;;;;;;;16.10;10.30;;;;;;;-145.94;66.01;77273.44;5098191;28;20224;-70
2023/05/23 09:14:40;;;;;;;13.57;9.43;;;;;;;-145.94;65.15;77271.41;5098245;28;20195;-71
2023/05/23 09:17:07;;;;;;;15.73;9.67;;;;;;;-145.94;65.14;77265.28;5098062;28;20224;-71
2023/05/23 09:19:39;;;;;;;11.80;9.37;;;;;;;-145.94;64.43;77273.44;5098151;28;20250;-71
2023/05/23 09:22:27;;;;;;;13.50;9.33;;;;;;;-145.94;64.77;77283.66;5098655;28;20193;-70
2023/05/23 09:25:01;;;;;;;19.30;9.93;;;;;;;-145.94;64.66;77310.16;5098868;28;20189;-70
2023/05/23 09:27:27;;;;;;;9.37;8.30;;;;;;;-145.94;64.69;77314.25;5097940;28;20746;-70
2023/05/23 09:29:54;;;;;;;18.80;10.27;;;;;;;-145.94;65.06;77322.41;5098000;28;20188;-70
2023/05/23 09:32:24;;;;;;;15.20;9.73;;;;;;;-145.94;64.86;77328.50;5098072;28;20191;-70
2023/05/23 09:35:02;;;;;;;18.37;9.20;;;;;;;-145.94;64.82;77328.50;5097724;28;20674;-70
2023/05/23 09:37:32;;;;;;;14.50;9.70;;;;;;;-145.94;65.16;77326.47;5097644;28;20325;-71
2023/05/23 09:40:00;;;;;;;10.70;8.23;;;;;;;-145.94;65.54;77318.31;5116276;28;20182;-71
2023/05/23 09:42:35;;;;;;;17.03;9.30;;;;;;;-145.94;65.34;77320.34;5097575;28;20196;-71
2023/05/23 09:45:02;;;;;;;20.47;10.57;;;;;;;-145.94;65.54;77340.75;5097676;28;20240;-71
2023/05/23 09:47:30;;;;;;;12.10;9.37;;;;;;;-145.94;65.28;77346.88;5115379;28;20246;-71
2023/05/23 09:49:57;;;;;;;15.07;9.57;;;;;;;-145.94;64.93;77361.16;5116062;28;20686;-71
2023/05/23 09:52:24;;;;;;;15.60;9.43;;;;;;;-145.94;65.14;77363.19;5097511;28;20659;-71
2023/05/23 09:54:50;;;;;;;19.67;11.70;;;;;;;-145.94;65.46;77365.22;5097411;28;20682;-70
2023/05/23 09:57:20;;;;;;;12.67;9.30;;;;;;;-145.94;65.19;77361.16;5115535;28;20262;-70
2023/05/23 09:59:57;;;;;;;17.63;9.77;;;;;;;-145.94;64.84;77379.50;5115888;28;20207;-70
2023/05/23 10:02:52;;;;;;;23.30;10.83;;;;;;;-145.94;64.57;77383.59;5115546;28;20174;-70
2023/05/23 10:05:43;;;;;;;12.70;9.10;;;;;;;-145.94;64.15;77383.59;5115466;28;20192;-71
2023/05/23 10:08:31;;;;;;;10.50;9.43;;;;;;;-145.94;64.54;77387.66;5115343;28;20201;-70
2023/05/23 10:11:12;;;;;;;18.20;9.10;;;;;;;-145.94;64.34;77389.69;5115674;28;20585;-70
2023/05/23 10:13:43;;;;;;;21.53;9.70;;;;;;;-145.94;63.77;77381.53;5115610;28;20592;-70
2023/05/23 10:16:37;;;;;;;10.73;8.53;;;;;;;-145.94;62.94;77369.31;5115330;28;20231;-70
2023/05/23 10:19:24;;;;;;;9.33;7.23;;;;;;;-145.94;62.59;77359.09;5097633;28;20546;-70
2023/05/23 10:22:00;;;;;;;9.53;8.33;;;;;;;-145.94;61.95;77348.91;5115448;28;20691;-70
2023/05/23 10:24:26;;;;;;;9.50;8.57;;;;;;;-145.94;61.97;77340.75;5115407;28;20218;-70
2023/05/23 10:26:54;;;;;;;8.97;8.13;;;;;;;-145.94;61.53;77326.47;5115188;28;20185;-70
2023/05/23 10:29:21;;;;;;;9.90;7.97;;;;;;;-145.94;61.26;77320.34;5114987;28;20644;-70
2023/05/23 10:31:49;;;;;;;10.87;7.90;;;;;;;-145.94;60.61;77295.88;5114992;28;20662;-70
2023/05/23 10:34:48;;;;;;;18.43;7.23;;;;;;;-145.94;60.66;77269.38;5115201;28;20185;-69
2023/05/23 10:37:25;;;;;;;7.90;7.23;;;;;;;-145.94;59.75;77234.69;5087350;28;20560;-70
2023/05/23 10:40:00;;;;;;;11.63;6.90;;;;;;;-145.94;59.44;77220.44;5114892;28;20238;-70
2023/05/23 10:43:01;;;;;;;10.63;7.17;;;;;;;-145.94;59.95;77214.31;5114997;28;20181;-71
2023/05/23 10:45:28;;;;;;;9.33;7.07;;;;;;;-145.94;58.52;77230.63;5101469;28;20216;-70
2023/05/23 10:47:55;;;;;;;10.03;7.50;;;;;;;-145.94;58.22;77230.63;5096296;28;20621;-71
2023/05/23 10:50:33;;;;;;;11.73;6.90;;;;;;;-145.94;58.56;77238.78;5114632;28;20185;-71
2023/05/23 10:53:01;;;;;;;8.03;6.60;;;;;;;-145.94;57.98;77246.94;5114557;28;20230;-71
2023/05/23 10:55:36;;;;;;;10.40;6.17;;;;;;;-145.94;57.68;77248.97;5115099;28;20253;-70
2023/05/23 10:58:19;;;;;;;6.20;5.57;;;;;;;-145.94;56.65;77242.88;5113376;28;20208;-69
2023/05/23 11:00:53;;;;;;;6.90;6.03;;;;;;;-145.94;57.25;77246.94;5114444;28;20181;-70
2023/05/23 11:03:45;;;;;;;5.97;5.83;;;;;;;-145.94;56.35;77244.91;5114655;28;20186;-70
2023/05/23 11:06:37;;;;;;;5.40;4.97;;;;;;;-145.94;55.60;77242.88;5103829;28;20211;-70
2023/05/23 11:09:08;;;;;;;6.93;5.40;;;;;;;-145.94;56.45;77236.75;5114395;28;20197;-70
2023/05/23 11:11:53;;;;;;;5.40;5.00;;;;;;;-145.94;56.62;77228.59;5114172;28;20620;-70
2023/05/23 11:14:36;;;;;;;5.07;4.87;;;;;;;-145.94;56.14;77214.31;5114477;28;20538;-70
2023/05/23 11:17:12;;;;;;;6.17;5.50;;;;;;;-145.94;55.69;77198.00;5114331;28;20180;-70
2023/05/23 11:19:39;;;;;;;7.97;5.03;;;;;;;-145.94;54.68;77177.59;5114528;28;20207;-70
2023/05/23 11:22:08;;;;;;;6.53;6.07;;;;;;;-145.94;54.19;77187.78;5114209;28;20551;-70